createdAt,value
2022-11-23T00:00:17.908Z,4.00
2022-11-23T00:05:19.645Z,4.00
2022-11-23T00:10:21.840Z,4.00
2022-11-23T00:15:23.658Z,4.00
2022-11-23T00:20:25.536Z,3.90
2022-11-23T00:25:27.436Z,3.90
2022-11-23T00:30:29.532Z,3.90
2022-11-23T00:35:31.352Z,3.90
2022-11-23T00:40:35.908Z,3.90
2022-11-23T00:45:38.271Z,4.00
2022-11-23T00:50:40.045Z,4.00
2022-11-23T00:55:50.292Z,4.00
2022-11-23T01:01:04.828Z,4.00
2022-11-23T01:06:12.273Z,4.10
2022-11-23T01:11:14.057Z,4.00
2022-11-23T01:16:23.922Z,4.00
2022-11-23T01:21:27.912Z,4.00
2022-11-23T01:26:29.853Z,4.00
2022-11-23T01:31:33.021Z,4.00
2022-11-23T01:36:35.213Z,4.00
2022-11-23T01:41:40.603Z,4.00
2022-11-23T01:46:42.364Z,4.00
2022-11-23T01:51:48.106Z,4.00
2022-11-23T01:56:57.812Z,4.00
2022-11-23T02:02:00.628Z,4.00
2022-11-23T02:07:04.787Z,4.00
2022-11-23T02:12:14.151Z,4.00
2022-11-23T02:17:18.312Z,4.00
2022-11-23T02:22:44.716Z,4.00
2022-11-23T02:27:47.307Z,4.00
2022-11-23T02:32:49.252Z,4.00
2022-11-23T02:37:53.814Z,4.00
2022-11-23T02:42:55.616Z,4.00
2022-11-23T02:47:57.508Z,4.00
2022-11-23T02:52:59.614Z,4.00
2022-11-23T02:58:02.008Z,4.10
2022-11-23T03:03:04.815Z,4.10
2022-11-23T03:08:08.054Z,4.10
2022-11-23T03:13:09.870Z,4.20
2022-11-23T03:18:13.883Z,4.20
2022-11-23T03:23:16.047Z,4.20
2022-11-23T03:28:19.748Z,4.20
2022-11-23T03:33:22.050Z,4.20
2022-11-23T03:38:24.161Z,4.20
2022-11-23T03:43:27.606Z,4.20
2022-11-23T03:48:29.455Z,4.20
2022-11-23T03:53:31.400Z,4.20
2022-11-23T03:58:34.261Z,4.20
2022-11-23T04:03:40.363Z,4.20
2022-11-23T04:08:51.936Z,4.20
2022-11-23T04:14:05.168Z,4.20
2022-11-23T04:19:08.216Z,4.20
2022-11-23T04:24:10.866Z,4.10
2022-11-23T04:29:14.460Z,4.20
2022-11-23T04:34:21.295Z,4.20
2022-11-23T04:39:24.975Z,4.20
2022-11-23T04:45:05.480Z,4.20
2022-11-23T04:50:07.807Z,4.10
2022-11-23T04:55:09.693Z,4.20
2022-11-23T05:00:18.777Z,4.10
2022-11-23T05:05:21.582Z,4.10
2022-11-23T05:10:23.471Z,4.10
2022-11-23T05:15:28.121Z,4.20
2022-11-23T05:20:30.521Z,4.20
2022-11-23T05:25:32.923Z,4.20
2022-11-23T05:30:37.923Z,4.20
2022-11-23T05:35:41.016Z,4.20
2022-11-23T05:40:45.616Z,4.20
2022-11-23T05:45:49.132Z,4.20
2022-11-23T05:50:52.709Z,4.20
2022-11-23T05:56:02.210Z,4.10
2022-11-23T06:01:09.243Z,4.10
2022-11-23T06:06:13.132Z,4.10
2022-11-23T06:11:17.716Z,4.00
2022-11-23T06:16:19.559Z,4.00
2022-11-23T06:21:38.801Z,3.90
2022-11-23T06:26:44.147Z,3.90
2022-11-23T06:31:46.974Z,3.90
2022-11-23T06:36:49.159Z,4.00
2022-11-23T06:41:50.955Z,3.90
2022-11-23T06:46:52.920Z,3.90
2022-11-23T06:51:54.671Z,3.90
2022-11-23T06:56:56.564Z,3.90
2022-11-23T07:01:58.460Z,3.90
2022-11-23T07:07:01.552Z,4.00
2022-11-23T07:12:17.664Z,4.00
2022-11-23T07:17:19.592Z,4.00
2022-11-23T07:22:22.096Z,4.00
2022-11-23T07:27:23.823Z,4.00
2022-11-23T07:32:25.592Z,4.00
2022-11-23T07:37:27.649Z,4.00
2022-11-23T07:42:34.616Z,4.00
2022-11-23T07:47:38.629Z,4.00
2022-11-23T07:52:41.309Z,4.00
2022-11-23T07:57:43.240Z,4.00
2022-11-23T08:03:04.317Z,4.10
2022-11-23T08:08:06.754Z,4.10
2022-11-23T08:13:08.526Z,4.20
2022-11-23T08:18:10.419Z,4.20
2022-11-23T08:23:12.152Z,4.20
2022-11-23T08:28:13.905Z,4.30
2022-11-23T08:33:15.694Z,4.40
2022-11-23T08:38:17.440Z,4.40
2022-11-23T08:43:19.193Z,4.40
2022-11-23T08:48:21.043Z,4.50
2022-11-23T08:53:22.869Z,4.60
2022-11-23T08:58:24.836Z,4.60
2022-11-23T09:03:31.928Z,4.80
2022-11-23T09:08:33.889Z,4.80
2022-11-23T09:13:39.989Z,4.90
2022-11-23T09:18:41.811Z,5.00
2022-11-23T09:23:43.549Z,5.00
2022-11-23T09:28:45.363Z,5.10
2022-11-23T09:33:47.109Z,5.20
2022-11-23T09:38:56.546Z,5.20
2022-11-23T09:44:08.487Z,5.20
2022-11-23T09:49:22.208Z,5.30
2022-11-23T09:54:29.359Z,5.30
2022-11-23T09:59:31.093Z,5.30
2022-11-23T10:04:35.522Z,5.30
2022-11-23T10:09:52.332Z,5.30
2022-11-23T10:15:33.671Z,5.30
2022-11-23T10:20:58.225Z,5.40
2022-11-23T10:26:00.312Z,5.40
2022-11-23T10:31:07.305Z,5.40
2022-11-23T10:36:11.375Z,5.40
2022-11-23T10:41:15.743Z,5.40
2022-11-23T10:46:34.158Z,5.40
2022-11-23T10:51:37.347Z,5.40
2022-11-23T10:56:46.593Z,5.40
2022-11-23T11:02:05.336Z,5.50
2022-11-23T11:07:23.807Z,5.50
2022-11-23T11:12:27.533Z,5.50
2022-11-23T11:17:32.560Z,5.60
2022-11-23T11:22:35.753Z,5.60
2022-11-23T11:27:37.545Z,5.70
2022-11-23T11:33:11.996Z,5.80
2022-11-23T11:38:20.603Z,5.80
2022-11-23T11:43:56.336Z,5.90
2022-11-23T11:49:11.063Z,5.90
2022-11-23T11:54:21.233Z,5.90
2022-11-23T11:59:35.578Z,6.00
2022-11-23T12:04:48.784Z,6.00
2022-11-23T12:09:55.787Z,6.00
2022-11-23T12:14:58.071Z,6.00
2022-11-23T12:20:08.020Z,5.90
2022-11-23T12:25:19.608Z,5.90
2022-11-23T12:30:43.260Z,5.90
2022-11-23T12:35:57.278Z,5.90
2022-11-23T12:41:28.703Z,5.90
2022-11-23T12:46:37.987Z,6.00
2022-11-23T12:51:59.280Z,6.00
2022-11-23T12:57:10.190Z,6.00
2022-11-23T13:02:25.590Z,6.00
2022-11-23T13:08:04.407Z,6.00
2022-11-23T13:13:27.991Z,6.00
2022-11-23T13:19:10.318Z,6.00
2022-11-23T13:24:31.981Z,5.90
2022-11-23T13:29:52.299Z,6.00
2022-11-23T13:34:54.055Z,5.90
2022-11-23T13:39:58.868Z,6.00
2022-11-23T13:45:19.169Z,6.00
2022-11-23T13:50:21.199Z,6.10
2022-11-23T13:55:31.337Z,6.10
2022-11-23T14:00:51.285Z,6.20
2022-11-23T14:05:58.911Z,6.30
2022-11-23T14:11:01.741Z,6.40
2022-11-23T14:16:04.758Z,6.40
2022-11-23T14:21:24.714Z,6.40
2022-11-23T14:26:55.137Z,6.30
2022-11-23T14:32:23.684Z,6.20
2022-11-23T14:37:46.036Z,6.10
2022-11-23T14:42:53.216Z,6.00
2022-11-23T14:47:54.953Z,5.90
2022-11-23T14:52:58.935Z,5.80
2022-11-23T14:58:04.745Z,5.70
2022-11-23T15:03:42.126Z,5.50
2022-11-23T15:09:05.001Z,5.20
2022-11-23T15:14:26.631Z,5.10
2022-11-23T15:19:29.946Z,5.00
2022-11-23T15:24:32.027Z,4.90
2022-11-23T15:29:37.324Z,4.80
2022-11-23T15:34:39.499Z,4.80
2022-11-23T15:39:42.382Z,4.70
2022-11-23T15:44:50.332Z,4.70
2022-11-23T15:50:08.783Z,4.70
2022-11-23T15:55:13.992Z,4.60
2022-11-23T16:00:26.048Z,4.60
2022-11-23T16:05:27.868Z,4.50
2022-11-23T16:10:37.340Z,4.40
2022-11-23T16:15:41.563Z,4.30
2022-11-23T16:20:48.640Z,4.20
2022-11-23T16:25:59.704Z,4.10
2022-11-23T16:31:01.975Z,3.90
2022-11-23T16:36:03.884Z,3.70
2022-11-23T16:41:05.885Z,3.60
2022-11-23T16:46:09.623Z,3.40
2022-11-23T16:51:14.456Z,3.30
2022-11-23T16:56:26.016Z,3.20
2022-11-23T17:01:32.595Z,3.10
2022-11-23T17:06:34.507Z,3.00
2022-11-23T17:11:42.047Z,2.80
2022-11-23T17:16:43.959Z,2.80
2022-11-23T17:21:46.378Z,2.70
2022-11-23T17:26:53.055Z,2.60
2022-11-23T17:31:54.888Z,2.50
2022-11-23T17:36:56.631Z,2.40
2022-11-23T17:42:04.378Z,2.30
2022-11-23T17:47:14.521Z,2.30
2022-11-23T17:52:16.249Z,2.20
2022-11-23T17:57:21.879Z,2.20
2022-11-23T18:02:24.816Z,2.10
2022-11-23T18:07:26.716Z,2.10
2022-11-23T18:12:28.607Z,1.90
2022-11-23T18:17:30.348Z,2.00
2022-11-23T18:22:32.095Z,1.90
2022-11-23T18:27:33.901Z,1.90
2022-11-23T18:32:35.619Z,1.90
2022-11-23T18:37:37.339Z,1.80
2022-11-23T18:42:39.127Z,1.80
2022-11-23T18:47:40.977Z,1.70
2022-11-23T18:52:42.768Z,1.60
2022-11-23T18:57:44.778Z,1.50
2022-11-23T19:02:52.255Z,1.40
2022-11-23T19:07:57.526Z,1.40
2022-11-23T19:13:05.057Z,1.40
2022-11-23T19:18:08.536Z,1.40
2022-11-23T19:23:11.024Z,1.40
2022-11-23T19:28:13.727Z,1.40
2022-11-23T19:33:17.672Z,1.40
2022-11-23T19:38:20.218Z,1.50
2022-11-23T19:43:22.836Z,1.40
2022-11-23T19:48:25.764Z,1.40
2022-11-23T19:53:31.204Z,1.30
2022-11-23T19:58:34.685Z,1.30
2022-11-23T20:03:41.094Z,1.20
2022-11-23T20:08:44.461Z,1.20
2022-11-23T20:13:47.124Z,1.20
2022-11-23T20:18:54.936Z,1.20
2022-11-23T20:24:05.445Z,1.30
2022-11-23T20:29:09.187Z,1.30
2022-11-23T20:34:16.755Z,1.30
2022-11-23T20:39:22.407Z,1.20
2022-11-23T20:44:30.757Z,1.20
2022-11-23T20:49:36.107Z,1.20
2022-11-23T20:54:37.998Z,1.10
2022-11-23T20:59:40.568Z,1.10
2022-11-23T21:04:42.335Z,1.10
2022-11-23T21:09:44.163Z,1.10
2022-11-23T21:14:46.167Z,1.10
2022-11-23T21:19:47.936Z,1.10
2022-11-23T21:24:49.769Z,1.10
2022-11-23T21:29:52.755Z,1.30
2022-11-23T21:34:54.523Z,1.30
2022-11-23T21:39:56.314Z,1.40
2022-11-23T21:44:58.208Z,1.50
2022-11-23T21:49:59.924Z,1.60
2022-11-23T21:55:01.667Z,1.60
2022-11-23T22:00:04.400Z,1.60
2022-11-23T22:05:13.926Z,1.70
2022-11-23T22:10:15.967Z,1.70
2022-11-23T22:15:17.712Z,1.80
2022-11-23T22:20:19.446Z,1.80
2022-11-23T22:25:21.208Z,1.90
2022-11-23T22:30:23.577Z,1.90
2022-11-23T22:35:25.349Z,1.90
2022-11-23T22:40:32.546Z,2.00
2022-11-23T22:45:34.316Z,2.10
2022-11-23T22:50:36.414Z,2.10
2022-11-23T22:55:38.721Z,2.10
2022-11-23T23:00:40.461Z,2.20
2022-11-23T23:05:42.198Z,2.30
2022-11-23T23:10:44.086Z,2.40
2022-11-23T23:15:46.326Z,2.30
2022-11-23T23:20:48.114Z,2.40
2022-11-23T23:25:53.932Z,2.50
2022-11-23T23:31:03.585Z,2.50
2022-11-23T23:36:06.364Z,2.50
2022-11-23T23:41:09.856Z,2.50
2022-11-23T23:46:13.366Z,2.60
2022-11-23T23:51:17.374Z,2.60
2022-11-23T23:56:24.596Z,2.60
